La Jose, Pennsylvania
Current Conditions -  °F | °C
As of 9:54 PM on Tuesday 21 Oct 2014 (Local Time) from KFIG Reporting Station
Overcast Overcast  
Wind Chill: 47°   Ceiling: 4000
Heat Index: 49°   Visibility: 10mi
Dew Point: 47°   Wind: 5mph
Humidity: 93%   Direction: 360°N
Pressure: 29.97"   Gusts: NA
Location:  40.85°N, 78.7°W
Report Text: KFIG 220154Z AUTO 36004KT 10SM SCT015 OVC040 09/08 A2997 RMK AO2 SLP152 T00940083
Loading
Personal Weather Stations






























Interactive Weather Map
Tropical Storm Tracking
New forecast layout! Learn more

10-Day Weather Forecast

Advertisements
Track Severe Weather on mobile